createdAt,value
2018-02-14T00:00:37.671Z,22.3
2018-02-14T00:01:38.313Z,22.4
2018-02-14T00:02:38.954Z,22.3
2018-02-14T00:03:39.596Z,22.3
2018-02-14T00:04:40.240Z,22.3
2018-02-14T00:05:40.895Z,22.3
2018-02-14T00:06:41.517Z,22.3
2018-02-14T00:07:42.158Z,22.2
2018-02-14T00:08:42.800Z,22.2
2018-02-14T00:09:43.439Z,22.3
2018-02-14T00:10:44.082Z,22.3
2018-02-14T00:11:44.724Z,22.3
2018-02-14T00:12:45.366Z,22.2
2018-02-14T00:13:46.308Z,22.2
2018-02-14T00:14:46.953Z,22.2
2018-02-14T00:15:47.592Z,22.2
2018-02-14T00:16:48.236Z,22.3
2018-02-14T00:17:48.877Z,22.2
2018-02-14T00:18:49.522Z,22.3
2018-02-14T00:19:50.163Z,22.2
2018-02-14T00:20:50.806Z,22.3
2018-02-14T00:21:51.447Z,22.2
2018-02-14T00:22:52.088Z,22.2
2018-02-14T00:23:52.731Z,22.3
2018-02-14T00:24:53.374Z,22.3
2018-02-14T00:25:54.017Z,22.2
2018-02-14T00:26:54.658Z,22.3
2018-02-14T00:27:55.300Z,22.3
2018-02-14T00:28:56.198Z,22.2
2018-02-14T00:29:56.840Z,22.3
2018-02-14T00:30:57.482Z,22.3
2018-02-14T00:31:58.125Z,22.3
2018-02-14T00:32:58.769Z,22.3
2018-02-14T00:33:59.409Z,22.3
2018-02-14T00:35:00.053Z,22.2
2018-02-14T00:36:00.693Z,22.2
2018-02-14T00:37:01.337Z,22.2
2018-02-14T00:38:01.979Z,22.3
2018-02-14T00:39:02.621Z,22.3
2018-02-14T00:40:03.266Z,22.3
2018-02-14T00:41:03.906Z,22.2
2018-02-14T00:42:04.548Z,22.2
2018-02-14T00:43:05.196Z,22.2
2018-02-14T00:44:05.939Z,22.3
2018-02-14T00:45:06.579Z,22.2
2018-02-14T00:46:07.221Z,22.2
2018-02-14T00:47:07.863Z,22.2
2018-02-14T00:48:08.507Z,22.3
2018-02-14T00:49:09.152Z,22.2
2018-02-14T00:50:09.798Z,22.3
2018-02-14T00:51:10.439Z,22.2
2018-02-14T00:52:11.126Z,22.2
2018-02-14T00:53:11.766Z,22.2
2018-02-14T00:54:12.409Z,22.3
2018-02-14T00:55:13.050Z,22.2
2018-02-14T00:56:13.695Z,22.2
2018-02-14T00:57:14.334Z,22.2
2018-02-14T00:58:14.977Z,22.2
2018-02-14T00:59:15.769Z,22.1
2018-02-14T01:00:16.410Z,22.1
2018-02-14T01:01:17.053Z,22.1
2018-02-14T01:02:17.696Z,22.1
2018-02-14T01:03:18.339Z,22.1
2018-02-14T01:04:18.979Z,22.1
2018-02-14T01:05:19.621Z,22.1
2018-02-14T01:06:20.264Z,22.1
2018-02-14T01:07:20.908Z,22.1
2018-02-14T01:08:21.551Z,22.1
2018-02-14T01:09:22.198Z,22.1
2018-02-14T01:10:22.839Z,22.1
2018-02-14T01:11:23.482Z,22.1
2018-02-14T01:12:24.122Z,22.2
2018-02-14T01:13:24.765Z,22.1
2018-02-14T01:14:25.658Z,22.2
2018-02-14T01:15:26.296Z,22.2
2018-02-14T01:16:26.935Z,22.2
2018-02-14T01:17:27.576Z,22.1
2018-02-14T01:18:28.217Z,22.1
2018-02-14T01:19:28.859Z,22.1
2018-02-14T01:20:29.503Z,22.1
2018-02-14T01:21:30.141Z,22.2
2018-02-14T01:22:30.782Z,22.1
2018-02-14T01:23:31.422Z,22.1
2018-02-14T01:24:32.066Z,22.1
2018-02-14T01:25:32.706Z,22.1
2018-02-14T01:26:33.352Z,22.1
2018-02-14T01:27:33.991Z,22.1
2018-02-14T01:28:34.669Z,22.0
2018-02-14T01:29:35.376Z,22.0
2018-02-14T01:30:36.019Z,22.2
2018-02-14T01:31:36.666Z,22.2
2018-02-14T01:32:37.311Z,22.1
2018-02-14T01:33:37.953Z,22.1
2018-02-14T01:34:38.593Z,22.1
2018-02-14T01:35:39.238Z,22.2
2018-02-14T01:36:39.884Z,22.1
2018-02-14T01:37:40.526Z,22.1
2018-02-14T01:38:41.166Z,22.1
2018-02-14T01:39:41.809Z,22.1
2018-02-14T01:40:42.450Z,22.1
2018-02-14T01:41:43.091Z,22.0
2018-02-14T01:42:43.733Z,22.1
2018-02-14T01:43:44.374Z,22.1
2018-02-14T01:44:45.316Z,22.0
2018-02-14T01:45:45.958Z,22.0
2018-02-14T01:46:46.598Z,22.1
2018-02-14T01:47:47.241Z,22.1
2018-02-14T01:48:47.883Z,22.0
2018-02-14T01:49:48.526Z,22.0
2018-02-14T01:50:49.171Z,22.0
2018-02-14T01:51:49.819Z,22.1
2018-02-14T01:52:50.451Z,22.1
2018-02-14T01:53:51.096Z,22.0
2018-02-14T01:54:51.749Z,22.0
2018-02-14T01:55:52.386Z,22.0
2018-02-14T01:56:53.026Z,22.1
2018-02-14T01:57:53.669Z,22.0
2018-02-14T01:58:54.310Z,22.1
2018-02-14T01:59:55.053Z,22.0
2018-02-14T02:00:55.696Z,22.1
2018-02-14T02:01:56.338Z,22.0
2018-02-14T02:02:56.982Z,22.0
2018-02-14T02:03:57.625Z,22.0
2018-02-14T02:04:58.274Z,22.0
2018-02-14T02:05:58.909Z,22.1
2018-02-14T02:06:59.551Z,22.1
2018-02-14T02:08:00.194Z,22.0
2018-02-14T02:09:00.838Z,22.1
2018-02-14T02:10:01.562Z,22.1
2018-02-14T02:11:02.171Z,22.0
2018-02-14T02:12:03.013Z,22.0
2018-02-14T02:13:03.656Z,22.0
2018-02-14T02:14:04.297Z,22.1
2018-02-14T02:15:04.940Z,22.1
2018-02-14T02:16:05.580Z,22.0
2018-02-14T02:17:06.220Z,22.0
2018-02-14T02:18:06.861Z,22.0
2018-02-14T02:19:07.503Z,22.0
2018-02-14T02:20:08.143Z,22.1
2018-02-14T02:21:08.784Z,22.0
2018-02-14T02:22:09.424Z,22.0
2018-02-14T02:23:10.066Z,21.9
2018-02-14T02:24:10.709Z,21.9
2018-02-14T02:25:11.353Z,22.0
2018-02-14T02:26:11.993Z,22.0
2018-02-14T02:27:12.633Z,22.0
2018-02-14T02:28:13.277Z,22.0
2018-02-14T02:29:13.919Z,22.0
2018-02-14T02:30:14.813Z,22.0
2018-02-14T02:31:15.454Z,22.0
2018-02-14T02:32:16.160Z,21.9
2018-02-14T02:33:16.803Z,22.0
2018-02-14T02:34:17.445Z,21.9
2018-02-14T02:35:18.087Z,21.9
2018-02-14T02:36:18.729Z,22.0
2018-02-14T02:37:19.370Z,22.0
2018-02-14T02:38:20.011Z,21.9
2018-02-14T02:39:20.655Z,21.9
2018-02-14T02:40:21.296Z,22.0
2018-02-14T02:41:21.939Z,21.9
2018-02-14T02:42:22.582Z,22.0
2018-02-14T02:43:23.226Z,22.0
2018-02-14T02:44:23.867Z,21.9
2018-02-14T02:45:24.509Z,22.0
2018-02-14T02:46:25.151Z,21.9
2018-02-14T02:47:25.795Z,22.0
2018-02-14T02:48:26.435Z,22.0
2018-02-14T02:49:27.077Z,22.0
2018-02-14T02:50:27.721Z,22.0
2018-02-14T02:51:28.363Z,22.0
2018-02-14T02:52:29.005Z,22.0
2018-02-14T02:53:29.648Z,21.9
2018-02-14T02:54:30.289Z,21.9
2018-02-14T02:55:30.934Z,21.9
2018-02-14T02:56:31.572Z,21.9
2018-02-14T02:57:32.214Z,21.9
2018-02-14T02:58:32.857Z,21.9
2018-02-14T02:59:33.500Z,21.9
2018-02-14T03:00:34.242Z,21.9
2018-02-14T03:01:34.882Z,21.9
2018-02-14T03:02:35.523Z,21.9
2018-02-14T03:03:36.164Z,21.9
2018-02-14T03:04:36.804Z,21.9
2018-02-14T03:05:37.446Z,21.8
2018-02-14T03:06:38.085Z,21.9
2018-02-14T03:07:38.726Z,21.8
2018-02-14T03:08:39.368Z,21.8
2018-02-14T03:09:40.011Z,21.9
2018-02-14T03:10:40.653Z,21.8
2018-02-14T03:11:41.295Z,21.9
2018-02-14T03:12:41.934Z,21.8
2018-02-14T03:13:42.578Z,21.9
2018-02-14T03:14:43.219Z,21.9
2018-02-14T03:15:43.962Z,21.9
2018-02-14T03:16:44.604Z,21.9
2018-02-14T03:17:45.246Z,21.9
2018-02-14T03:18:45.888Z,21.9
2018-02-14T03:19:46.529Z,21.9
2018-02-14T03:20:47.168Z,21.9
2018-02-14T03:21:47.809Z,21.9
2018-02-14T03:22:48.457Z,21.9
2018-02-14T03:23:49.098Z,21.9
2018-02-14T03:24:49.739Z,21.9
2018-02-14T03:25:50.382Z,21.9
2018-02-14T03:26:51.022Z,21.9
2018-02-14T03:27:51.661Z,21.9
2018-02-14T03:28:52.306Z,21.8
2018-02-14T03:29:52.953Z,21.9
2018-02-14T03:30:53.745Z,21.9
2018-02-14T03:31:54.388Z,21.9
2018-02-14T03:32:55.036Z,21.9
2018-02-14T03:33:55.678Z,21.9
2018-02-14T03:34:56.317Z,21.9
2018-02-14T03:35:56.959Z,21.8
2018-02-14T03:36:57.601Z,21.9
2018-02-14T03:37:58.244Z,21.8
2018-02-14T03:38:58.885Z,21.8
2018-02-14T03:39:59.528Z,21.9
2018-02-14T03:41:00.168Z,21.9
2018-02-14T03:42:00.810Z,21.9
2018-02-14T03:43:01.451Z,21.8
2018-02-14T03:44:02.094Z,21.8
2018-02-14T03:45:02.736Z,21.8
2018-02-14T03:46:03.481Z,21.9
2018-02-14T03:47:04.125Z,21.8
2018-02-14T03:48:04.767Z,21.8
2018-02-14T03:49:05.410Z,21.8
2018-02-14T03:50:06.051Z,21.8
2018-02-14T03:51:06.695Z,21.8
2018-02-14T03:52:07.362Z,21.8
2018-02-14T03:53:08.007Z,21.9
2018-02-14T03:54:08.645Z,21.8
2018-02-14T03:55:09.289Z,21.8
2018-02-14T03:56:09.931Z,21.7
2018-02-14T03:57:10.570Z,21.8
2018-02-14T03:58:11.213Z,21.8
2018-02-14T03:59:11.855Z,21.8
2018-02-14T04:00:12.497Z,21.8
2018-02-14T04:01:13.390Z,21.8
2018-02-14T04:02:14.032Z,21.8
2018-02-14T04:03:14.674Z,21.8
2018-02-14T04:04:15.312Z,21.8
2018-02-14T04:05:15.953Z,21.8
2018-02-14T04:06:16.594Z,21.8
2018-02-14T04:07:17.235Z,21.8
2018-02-14T04:08:17.874Z,21.8
2018-02-14T04:09:18.515Z,21.8
2018-02-14T04:10:19.156Z,21.8
2018-02-14T04:11:19.797Z,21.8
2018-02-14T04:12:20.461Z,21.8
2018-02-14T04:13:21.101Z,21.8
2018-02-14T04:14:21.744Z,21.8
2018-02-14T04:15:22.386Z,21.7
2018-02-14T04:16:23.278Z,21.8
2018-02-14T04:17:23.918Z,21.8
2018-02-14T04:18:24.560Z,21.8
2018-02-14T04:19:25.202Z,21.8
2018-02-14T04:20:25.844Z,21.7
2018-02-14T04:21:26.484Z,21.7
2018-02-14T04:22:27.125Z,21.8
2018-02-14T04:23:27.765Z,21.8
2018-02-14T04:24:28.407Z,21.8
2018-02-14T04:25:29.047Z,21.7
2018-02-14T04:26:29.686Z,21.8
2018-02-14T04:27:30.328Z,21.8
2018-02-14T04:28:30.968Z,21.7
2018-02-14T04:29:31.616Z,21.7
2018-02-14T04:30:32.260Z,21.7
2018-02-14T04:31:32.900Z,21.8
2018-02-14T04:32:33.541Z,21.7
2018-02-14T04:33:34.181Z,21.7
2018-02-14T04:34:34.822Z,21.8
2018-02-14T04:35:35.462Z,21.8
2018-02-14T04:36:36.101Z,21.8
2018-02-14T04:37:36.743Z,21.7
2018-02-14T04:38:37.384Z,21.8
2018-02-14T04:39:38.025Z,21.6
2018-02-14T04:40:38.668Z,21.7
2018-02-14T04:41:39.314Z,21.7
2018-02-14T04:42:39.957Z,21.7
2018-02-14T04:43:40.599Z,21.7
2018-02-14T04:44:41.239Z,21.7
2018-02-14T04:45:41.880Z,21.7
2018-02-14T04:46:42.771Z,21.7
2018-02-14T04:47:43.416Z,21.7
2018-02-14T04:48:44.056Z,21.7
2018-02-14T04:49:44.713Z,21.7
2018-02-14T04:50:45.341Z,21.8
2018-02-14T04:51:45.983Z,21.7
2018-02-14T04:52:46.625Z,21.7
2018-02-14T04:53:47.268Z,21.7
2018-02-14T04:54:47.909Z,21.7
2018-02-14T04:55:48.549Z,21.6
2018-02-14T04:56:49.190Z,21.6
2018-02-14T04:57:49.831Z,21.7
2018-02-14T04:58:50.474Z,21.7
2018-02-14T04:59:51.115Z,21.7
2018-02-14T05:00:51.757Z,21.7
2018-02-14T05:01:52.646Z,21.7
2018-02-14T05:02:53.290Z,21.7
2018-02-14T05:03:53.930Z,21.7
2018-02-14T05:04:54.572Z,21.7
2018-02-14T05:05:55.211Z,21.6
2018-02-14T05:06:55.854Z,21.6
2018-02-14T05:07:56.493Z,21.7
2018-02-14T05:08:57.137Z,21.7
2018-02-14T05:09:57.777Z,21.6
2018-02-14T05:10:58.422Z,21.8
2018-02-14T05:11:59.064Z,21.8
2018-02-14T05:12:59.701Z,21.7
2018-02-14T05:14:00.346Z,21.7
2018-02-14T05:15:00.992Z,21.7
2018-02-14T05:16:01.634Z,21.6
2018-02-14T05:17:02.375Z,21.6
2018-02-14T05:18:03.016Z,21.7
2018-02-14T05:19:03.658Z,21.7
2018-02-14T05:20:04.300Z,21.6
2018-02-14T05:21:04.940Z,21.6
2018-02-14T05:22:05.583Z,21.6
2018-02-14T05:23:06.222Z,21.7
2018-02-14T05:24:06.865Z,21.7
2018-02-14T05:25:07.506Z,21.6
2018-02-14T05:26:08.154Z,21.7
2018-02-14T05:27:08.789Z,21.7
2018-02-14T05:28:09.429Z,21.6
2018-02-14T05:29:10.070Z,21.7
2018-02-14T05:30:10.713Z,21.7
2018-02-14T05:31:11.350Z,21.7
2018-02-14T05:32:12.225Z,21.7
2018-02-14T05:33:12.866Z,21.7
2018-02-14T05:34:13.506Z,21.6
2018-02-14T05:35:14.147Z,21.7
2018-02-14T05:36:14.789Z,21.7
2018-02-14T05:37:15.435Z,21.6
2018-02-14T05:38:16.072Z,21.6
2018-02-14T05:39:16.713Z,21.7
2018-02-14T05:40:17.356Z,21.7
2018-02-14T05:41:17.996Z,21.7
2018-02-14T05:42:18.637Z,21.6
2018-02-14T05:43:19.279Z,21.6
2018-02-14T05:44:19.922Z,21.6
2018-02-14T05:45:20.566Z,21.7
2018-02-14T05:46:21.209Z,21.7
2018-02-14T05:47:22.049Z,21.6
2018-02-14T05:48:22.691Z,21.7
2018-02-14T05:49:23.330Z,21.6
2018-02-14T05:50:23.970Z,21.6
2018-02-14T05:51:24.613Z,21.6
2018-02-14T05:52:25.254Z,21.6
2018-02-14T05:53:25.895Z,21.6
2018-02-14T05:54:26.535Z,21.7
2018-02-14T05:55:27.176Z,21.6
2018-02-14T05:56:27.817Z,21.7
2018-02-14T05:57:28.463Z,21.7
2018-02-14T05:58:29.109Z,21.6
2018-02-14T05:59:29.744Z,21.7
2018-02-14T06:00:30.386Z,21.7
2018-02-14T06:01:31.027Z,21.6
2018-02-14T06:02:31.869Z,21.6
2018-02-14T06:03:32.509Z,21.6
2018-02-14T06:04:33.154Z,21.6
2018-02-14T06:05:33.800Z,21.7
2018-02-14T06:06:34.438Z,21.6
2018-02-14T06:07:35.078Z,21.6
2018-02-14T06:08:35.719Z,21.7
2018-02-14T06:09:36.360Z,21.7
2018-02-14T06:10:37.000Z,21.7
2018-02-14T06:11:37.640Z,21.6
2018-02-14T06:12:38.733Z,21.6
2018-02-14T06:13:39.375Z,21.7
2018-02-14T06:14:40.016Z,21.8
2018-02-14T06:15:40.657Z,21.8
2018-02-14T06:16:41.298Z,21.8
2018-02-14T06:17:41.940Z,21.9
2018-02-14T06:18:42.580Z,21.9
2018-02-14T06:19:43.224Z,21.9
2018-02-14T06:20:43.864Z,22.0
2018-02-14T06:21:44.507Z,22.0
2018-02-14T06:22:45.146Z,22.0
2018-02-14T06:23:45.788Z,22.0
2018-02-14T06:24:46.428Z,22.0
2018-02-14T06:25:47.075Z,22.0
2018-02-14T06:26:47.716Z,22.0
2018-02-14T06:27:48.460Z,22.1
2018-02-14T06:28:49.100Z,22.2
2018-02-14T06:29:49.741Z,22.2
2018-02-14T06:30:50.381Z,22.1
2018-02-14T06:31:51.025Z,22.1
2018-02-14T06:32:51.662Z,22.2
2018-02-14T06:33:52.304Z,22.2
2018-02-14T06:34:52.942Z,22.3
2018-02-14T06:35:53.584Z,22.2
2018-02-14T06:36:54.224Z,22.3
2018-02-14T06:37:54.868Z,22.2
2018-02-14T06:38:55.509Z,22.3
2018-02-14T06:39:56.150Z,22.3
2018-02-14T06:40:56.892Z,22.3
2018-02-14T06:41:57.683Z,22.3
2018-02-14T06:42:58.325Z,22.3
2018-02-14T06:43:58.965Z,22.3
2018-02-14T06:44:59.605Z,22.3
2018-02-14T06:46:00.248Z,22.4
2018-02-14T06:47:00.886Z,22.3
2018-02-14T06:48:01.528Z,22.4
2018-02-14T06:49:02.169Z,22.4
2018-02-14T06:50:02.810Z,22.5
2018-02-14T06:51:03.454Z,22.4
2018-02-14T06:52:04.246Z,22.4
2018-02-14T06:53:04.890Z,22.4
2018-02-14T06:54:05.528Z,22.4
2018-02-14T06:55:06.168Z,22.4
2018-02-14T06:56:06.812Z,22.4
2018-02-14T06:57:07.453Z,22.4
2018-02-14T06:58:08.096Z,22.4
2018-02-14T06:59:08.738Z,22.5
2018-02-14T07:00:09.382Z,22.4
2018-02-14T07:01:10.023Z,22.5
2018-02-14T07:02:10.666Z,22.5
2018-02-14T07:03:11.305Z,22.5
2018-02-14T07:04:11.948Z,22.5
2018-02-14T07:05:12.739Z,22.4
2018-02-14T07:06:13.380Z,22.4
2018-02-14T07:07:14.123Z,22.6
2018-02-14T07:08:14.864Z,22.4
2018-02-14T07:09:15.505Z,22.5
2018-02-14T07:10:16.301Z,22.6
2018-02-14T07:11:17.042Z,22.6
2018-02-14T07:12:17.732Z,22.6
2018-02-14T07:13:18.528Z,22.5
2018-02-14T07:14:19.167Z,22.7
2018-02-14T07:15:19.807Z,22.6
2018-02-14T07:16:20.448Z,22.6
2018-02-14T07:17:21.092Z,22.7
2018-02-14T07:18:21.732Z,22.6
2018-02-14T07:19:22.376Z,22.7
2018-02-14T07:20:23.018Z,22.7
2018-02-14T07:21:23.661Z,22.6
2018-02-14T07:22:24.302Z,22.6
2018-02-14T07:23:24.945Z,22.7
2018-02-14T07:24:25.587Z,22.6
2018-02-14T07:25:26.230Z,22.7
2018-02-14T07:26:26.872Z,22.7
2018-02-14T07:27:27.515Z,22.8
2018-02-14T07:28:28.306Z,22.7
2018-02-14T07:29:28.948Z,22.7
2018-02-14T07:30:29.591Z,22.7
2018-02-14T07:31:30.384Z,22.8
2018-02-14T07:32:31.027Z,22.7
2018-02-14T07:33:31.670Z,22.8
2018-02-14T07:34:32.311Z,22.8
2018-02-14T07:35:32.954Z,22.8
2018-02-14T07:36:33.700Z,22.7
2018-02-14T07:37:34.438Z,22.7
2018-02-14T07:38:35.180Z,22.8
2018-02-14T07:39:35.923Z,22.8
2018-02-14T07:40:36.563Z,22.9
2018-02-14T07:41:37.355Z,22.7
2018-02-14T07:42:37.996Z,22.8
2018-02-14T07:43:38.773Z,22.9
2018-02-14T07:44:39.425Z,22.8
2018-02-14T07:45:40.069Z,22.8
2018-02-14T07:46:40.709Z,22.8
2018-02-14T07:47:41.352Z,22.8
2018-02-14T07:48:41.994Z,22.8
2018-02-14T07:49:42.736Z,22.8
2018-02-14T07:50:43.379Z,22.9
2018-02-14T07:51:44.020Z,22.8
2018-02-14T07:52:44.665Z,22.8
2018-02-14T07:53:45.312Z,22.8
2018-02-14T07:54:46.054Z,22.9
2018-02-14T07:55:46.695Z,22.8
2018-02-14T07:56:47.337Z,22.8
2018-02-14T07:57:47.976Z,22.9
2018-02-14T07:58:48.616Z,22.9
2018-02-14T07:59:49.258Z,22.9
2018-02-14T08:00:49.900Z,22.9
2018-02-14T08:01:50.542Z,22.9
2018-02-14T08:02:51.186Z,22.9
2018-02-14T08:03:51.825Z,22.8
2018-02-14T08:04:52.568Z,22.8
2018-02-14T08:05:53.209Z,22.9
2018-02-14T08:06:53.896Z,22.9
2018-02-14T08:07:54.535Z,22.9
2018-02-14T08:08:55.175Z,22.9
2018-02-14T08:09:55.816Z,22.9
2018-02-14T08:10:56.459Z,22.9
2018-02-14T08:11:57.255Z,22.9
2018-02-14T08:12:57.996Z,22.9
2018-02-14T08:13:58.736Z,22.9
2018-02-14T08:14:59.427Z,22.9
2018-02-14T08:16:00.069Z,22.9
2018-02-14T08:17:00.738Z,22.9
2018-02-14T08:18:01.364Z,22.9
2018-02-14T08:19:02.204Z,22.9
2018-02-14T08:20:02.844Z,22.9
2018-02-14T08:21:03.487Z,22.9
2018-02-14T08:22:04.129Z,22.9
2018-02-14T08:23:04.770Z,23.0
2018-02-14T08:24:05.414Z,23.0
2018-02-14T08:25:06.054Z,22.9
2018-02-14T08:26:06.796Z,23.0
2018-02-14T08:27:07.438Z,23.0
2018-02-14T08:28:08.081Z,23.0
2018-02-14T08:29:08.723Z,23.0
2018-02-14T08:30:09.366Z,23.0
2018-02-14T08:31:10.007Z,23.0
2018-02-14T08:32:10.674Z,23.0
2018-02-14T08:33:11.415Z,23.0
2018-02-14T08:34:12.056Z,23.0
2018-02-14T08:35:12.696Z,23.0
2018-02-14T08:36:13.336Z,23.1
2018-02-14T08:37:14.079Z,23.0
2018-02-14T08:38:14.820Z,23.1
2018-02-14T08:39:15.461Z,23.1
2018-02-14T08:40:16.102Z,23.0
2018-02-14T08:41:16.844Z,23.1
2018-02-14T08:42:17.487Z,23.0
2018-02-14T08:43:18.231Z,23.1
2018-02-14T08:44:18.873Z,23.1
2018-02-14T08:45:19.516Z,23.1
2018-02-14T08:46:20.160Z,23.1
2018-02-14T08:47:20.802Z,23.1
2018-02-14T08:48:21.445Z,23.1
2018-02-14T08:49:22.088Z,23.1
2018-02-14T08:50:22.730Z,23.1
2018-02-14T08:51:23.372Z,23.1
2018-02-14T08:52:24.013Z,23.2
2018-02-14T08:53:24.653Z,23.1
2018-02-14T08:54:25.395Z,23.2
2018-02-14T08:55:26.036Z,23.0
2018-02-14T08:56:26.679Z,23.2
2018-02-14T08:57:27.323Z,23.2
2018-02-14T08:58:27.966Z,23.2
2018-02-14T08:59:28.607Z,23.2
2018-02-14T09:00:29.249Z,23.2
2018-02-14T09:01:29.991Z,23.1
2018-02-14T09:02:30.634Z,23.2
2018-02-14T09:03:31.275Z,23.2
2018-02-14T09:04:31.917Z,23.1
2018-02-14T09:05:32.562Z,23.1
2018-02-14T09:06:33.202Z,23.2
2018-02-14T09:07:33.844Z,23.2
2018-02-14T09:08:34.487Z,23.2
2018-02-14T09:09:35.279Z,23.2
2018-02-14T09:10:35.920Z,23.2
2018-02-14T09:11:36.562Z,23.1
2018-02-14T09:12:37.304Z,23.3
2018-02-14T09:13:38.097Z,23.2
2018-02-14T09:14:38.839Z,23.1
2018-02-14T09:15:39.583Z,23.3
2018-02-14T09:16:40.231Z,23.3
2018-02-14T09:17:40.874Z,23.2
2018-02-14T09:18:41.518Z,23.3
2018-02-14T09:19:42.156Z,23.3
2018-02-14T09:20:42.798Z,23.3
2018-02-14T09:21:43.440Z,23.4
2018-02-14T09:22:44.080Z,23.4
2018-02-14T09:23:44.822Z,23.4
2018-02-14T09:24:45.463Z,23.4
2018-02-14T09:25:46.205Z,23.4
2018-02-14T09:26:46.845Z,23.5
2018-02-14T09:27:47.490Z,23.5
2018-02-14T09:28:48.134Z,23.5
2018-02-14T09:29:48.879Z,23.7
2018-02-14T09:30:49.523Z,23.8
2018-02-14T09:31:50.166Z,23.9
2018-02-14T09:32:50.813Z,23.9
2018-02-14T09:33:51.452Z,23.9
2018-02-14T09:34:52.096Z,23.9
2018-02-14T09:35:52.741Z,24.0
2018-02-14T09:36:53.484Z,24.0
2018-02-14T09:37:54.130Z,24.1
2018-02-14T09:38:54.872Z,24.1
2018-02-14T09:39:55.515Z,24.1
2018-02-14T09:40:56.257Z,24.2
2018-02-14T09:41:56.898Z,24.2
2018-02-14T09:42:57.543Z,24.3
2018-02-14T09:43:58.186Z,24.3
2018-02-14T09:44:58.830Z,24.3
2018-02-14T09:45:59.473Z,24.3
2018-02-14T09:47:00.117Z,24.4
2018-02-14T09:48:00.760Z,24.4
2018-02-14T09:49:01.403Z,24.4
2018-02-14T09:50:02.046Z,24.4
2018-02-14T09:51:02.689Z,24.4
2018-02-14T09:52:03.333Z,24.5
2018-02-14T09:53:03.981Z,24.5
2018-02-14T09:54:04.772Z,24.5
2018-02-14T09:55:05.415Z,24.5
2018-02-14T09:56:06.061Z,24.6
2018-02-14T09:57:06.705Z,24.6
2018-02-14T09:58:07.348Z,24.6
2018-02-14T09:59:07.991Z,24.6
2018-02-14T10:00:08.648Z,24.7
2018-02-14T10:01:09.295Z,24.8
2018-02-14T10:02:09.925Z,24.8
2018-02-14T10:03:10.568Z,24.7
2018-02-14T10:04:11.221Z,24.8
2018-02-14T10:05:11.970Z,24.8
2018-02-14T10:06:12.608Z,24.9
2018-02-14T10:07:13.252Z,24.9
2018-02-14T10:08:13.897Z,24.9
2018-02-14T10:09:14.541Z,25.0
2018-02-14T10:10:15.186Z,24.9
2018-02-14T10:11:15.932Z,25.0
2018-02-14T10:12:16.573Z,24.9
2018-02-14T10:13:17.318Z,25.0
2018-02-14T10:14:18.112Z,25.1
2018-02-14T10:15:18.755Z,25.2
2018-02-14T10:16:19.399Z,25.1
2018-02-14T10:17:20.143Z,25.2
2018-02-14T10:18:20.789Z,25.2
2018-02-14T10:19:21.434Z,25.2
2018-02-14T10:20:22.080Z,25.2
2018-02-14T10:21:22.825Z,25.3
2018-02-14T10:22:23.472Z,25.4
2018-02-14T10:23:24.122Z,25.4
2018-02-14T10:24:24.766Z,25.5
2018-02-14T10:25:25.412Z,25.6
2018-02-14T10:26:26.359Z,25.6
2018-02-14T10:27:27.003Z,25.6
2018-02-14T10:28:27.647Z,25.7
2018-02-14T10:29:28.292Z,25.7
2018-02-14T10:30:28.937Z,25.8
2018-02-14T10:31:29.582Z,25.8
2018-02-14T10:32:30.327Z,25.8
2018-02-14T10:33:30.973Z,25.9
2018-02-14T10:34:31.620Z,25.9
2018-02-14T10:35:32.266Z,26.0
2018-02-14T10:36:33.065Z,25.9
2018-02-14T10:37:33.711Z,26.1
2018-02-14T10:38:34.454Z,26.3
2018-02-14T10:39:35.102Z,26.4
2018-02-14T10:40:35.850Z,26.5
2018-02-14T10:41:36.599Z,26.7
2018-02-14T10:42:37.344Z,26.9
2018-02-14T10:43:37.991Z,27.1
2018-02-14T10:44:38.638Z,27.2
2018-02-14T10:45:39.284Z,27.4
2018-02-14T10:46:39.934Z,27.7
2018-02-14T10:47:40.955Z,27.8
2018-02-14T10:48:41.581Z,28.0
2018-02-14T10:49:42.230Z,28.3
2018-02-14T10:50:42.878Z,28.4
2018-02-14T10:51:43.527Z,28.5
2018-02-14T10:52:44.173Z,28.7
2018-02-14T10:53:44.820Z,28.6
2018-02-14T10:54:45.468Z,28.8
2018-02-14T10:55:46.116Z,28.8
2018-02-14T10:56:46.762Z,28.9
2018-02-14T10:57:47.411Z,29.0
2018-02-14T10:58:48.058Z,29.1
2018-02-14T10:59:48.807Z,29.0
2018-02-14T11:00:49.457Z,29.1
2018-02-14T11:01:50.106Z,29.2
2018-02-14T11:02:50.755Z,29.2
2018-02-14T11:03:51.652Z,29.1
2018-02-14T11:04:52.300Z,29.1
2018-02-14T11:05:52.948Z,29.0
2018-02-14T11:06:53.596Z,29.1
2018-02-14T11:07:54.244Z,29.0
2018-02-14T11:08:54.992Z,28.9
2018-02-14T11:09:55.639Z,28.9
2018-02-14T11:10:56.289Z,28.8
2018-02-14T11:11:56.938Z,28.8
2018-02-14T11:12:57.684Z,28.8
2018-02-14T11:13:58.429Z,28.7
2018-02-14T11:14:59.228Z,28.5
2018-02-14T11:15:59.874Z,28.4
2018-02-14T11:17:00.520Z,28.2
2018-02-14T11:18:01.172Z,28.1
2018-02-14T11:19:01.813Z,27.9
2018-02-14T11:20:02.612Z,28.0
2018-02-14T11:21:03.259Z,27.8
2018-02-14T11:22:03.903Z,27.6
2018-02-14T11:23:04.551Z,27.5
2018-02-14T11:24:05.202Z,27.5
2018-02-14T11:25:05.849Z,27.4
2018-02-14T11:26:06.493Z,27.3
2018-02-14T11:27:07.139Z,27.2
2018-02-14T11:28:07.884Z,27.2
2018-02-14T11:29:08.530Z,27.0
2018-02-14T11:30:09.174Z,27.0
2018-02-14T11:31:09.821Z,26.9
2018-02-14T11:32:10.523Z,26.9
2018-02-14T11:33:11.168Z,26.8
2018-02-14T11:34:11.812Z,26.7
2018-02-14T11:35:12.459Z,26.6
2018-02-14T11:36:13.104Z,26.5
2018-02-14T11:37:13.845Z,26.5
2018-02-14T11:38:14.840Z,26.4
2018-02-14T11:39:15.588Z,26.4
2018-02-14T11:40:16.333Z,26.3
2018-02-14T11:41:16.981Z,26.2
2018-02-14T11:42:17.625Z,26.2
2018-02-14T11:43:18.269Z,26.1
2018-02-14T11:44:18.913Z,26.1
2018-02-14T11:45:19.563Z,26.1
2018-02-14T11:46:20.208Z,26.0
2018-02-14T11:47:20.883Z,25.9
2018-02-14T11:48:21.495Z,25.9
2018-02-14T11:49:22.154Z,25.9
2018-02-14T11:50:22.782Z,25.8
2018-02-14T11:51:23.425Z,25.8
2018-02-14T11:52:24.069Z,25.8
2018-02-14T11:53:24.717Z,25.7
2018-02-14T11:54:25.360Z,25.7
2018-02-14T11:55:26.010Z,25.7
2018-02-14T11:56:26.652Z,25.6
2018-02-14T11:57:27.298Z,25.6
2018-02-14T11:58:27.947Z,25.5
2018-02-14T11:59:28.694Z,25.5
2018-02-14T12:00:29.438Z,25.5
2018-02-14T12:01:30.082Z,25.5
2018-02-14T12:02:30.727Z,25.5
2018-02-14T12:03:31.371Z,25.4
2018-02-14T12:04:32.116Z,25.4
2018-02-14T12:05:32.764Z,25.3
2018-02-14T12:06:33.408Z,25.3
2018-02-14T12:07:34.052Z,25.3
2018-02-14T12:08:34.695Z,25.3
2018-02-14T12:09:35.338Z,25.2
2018-02-14T12:10:36.532Z,25.2
2018-02-14T12:11:37.277Z,25.3
2018-02-14T12:12:38.025Z,25.3
2018-02-14T12:13:38.664Z,25.2
2018-02-14T12:14:39.307Z,25.2
2018-02-14T12:15:39.950Z,25.1
2018-02-14T12:16:40.593Z,25.2
2018-02-14T12:17:41.339Z,25.1
2018-02-14T12:18:41.982Z,25.1
2018-02-14T12:19:42.625Z,25.0
2018-02-14T12:20:43.270Z,25.1
2018-02-14T12:21:43.915Z,25.0
2018-02-14T12:22:44.559Z,25.0
2018-02-14T12:23:45.205Z,25.0
2018-02-14T12:24:45.847Z,25.0
2018-02-14T12:25:46.591Z,25.1
2018-02-14T12:26:47.335Z,25.1
2018-02-14T12:27:48.079Z,25.0
2018-02-14T12:28:48.722Z,25.1
2018-02-14T12:29:49.367Z,25.0
2018-02-14T12:30:50.014Z,25.0
2018-02-14T12:31:50.654Z,25.0
2018-02-14T12:32:51.298Z,25.0
2018-02-14T12:33:51.940Z,25.0
2018-02-14T12:34:52.582Z,25.0
2018-02-14T12:35:53.227Z,24.9
2018-02-14T12:36:54.122Z,24.9
2018-02-14T12:37:54.764Z,25.0
2018-02-14T12:38:55.510Z,24.8
2018-02-14T12:39:56.154Z,24.9
2018-02-14T12:40:56.799Z,24.9
2018-02-14T12:41:57.442Z,24.9
2018-02-14T12:42:58.086Z,24.9
2018-02-14T12:43:59.078Z,24.9
2018-02-14T12:44:59.723Z,24.8
2018-02-14T12:46:00.365Z,24.9
2018-02-14T12:47:01.010Z,24.9
2018-02-14T12:48:01.660Z,24.8
2018-02-14T12:49:02.300Z,24.8
2018-02-14T12:50:02.945Z,24.9
2018-02-14T12:51:03.789Z,24.9
2018-02-14T12:52:05.006Z,24.8
2018-02-14T12:53:05.599Z,24.7
2018-02-14T12:54:06.240Z,24.8
2018-02-14T12:55:06.884Z,24.9
2018-02-14T12:56:07.527Z,24.8
2018-02-14T12:57:08.168Z,24.7
2018-02-14T12:58:08.811Z,24.8
2018-02-14T12:59:09.453Z,24.8
2018-02-14T13:00:10.098Z,24.8
2018-02-14T13:01:10.742Z,24.8
2018-02-14T13:02:11.386Z,24.7
2018-02-14T13:03:12.027Z,24.8
2018-02-14T13:04:12.672Z,24.8
2018-02-14T13:05:13.316Z,24.7
2018-02-14T13:06:13.960Z,24.8
2018-02-14T13:07:14.604Z,24.7
2018-02-14T13:08:15.248Z,24.8
2018-02-14T13:09:15.893Z,24.6
2018-02-14T13:10:16.637Z,24.6
2018-02-14T13:11:17.381Z,24.8
2018-02-14T13:12:18.036Z,24.6
2018-02-14T13:13:18.678Z,24.7
2018-02-14T13:14:19.316Z,24.6
2018-02-14T13:15:20.059Z,24.7
2018-02-14T13:16:20.704Z,24.7
2018-02-14T13:17:21.349Z,24.6
2018-02-14T13:18:21.990Z,24.7
2018-02-14T13:19:22.737Z,24.7
2018-02-14T13:20:23.478Z,24.7
2018-02-14T13:21:24.221Z,24.6
2018-02-14T13:22:24.864Z,24.7
2018-02-14T13:23:25.608Z,24.6
2018-02-14T13:24:26.451Z,24.6
2018-02-14T13:25:27.194Z,24.7
2018-02-14T13:26:27.836Z,24.6
2018-02-14T13:27:28.478Z,24.6